Time;durP1;ratioP1;P1;durP2;ratioP2;P2;SDS_P1;SDS_P2;PMS_P1;PMS_P2;Temp;Humidity;BMP_temperature;BMP_pressure;BME280_temperature;BME280_humidity;BME280_pressure;Samples;Min_cycle;Max_cycle;Signal;HPM_P1;HPM_P2
2022/08/21 00:01:07;;;;;;;;;12.25;9.25;;;29.86;97094.60;;;;119149;1188;25007;-56
2022/08/21 00:03:35;;;;;;;;;8.75;8.00;;;29.87;97094.92;;;;119032;1189;26394;-55
2022/08/21 00:06:03;;;;;;;;;11.00;9.00;;;29.88;97095.48;;;;119131;1188;25708;-55
2022/08/21 00:08:31;;;;;;;;;11.50;9.00;;;29.86;97092.45;;;;119147;1188;25691;-55
2022/08/21 00:11:00;;;;;;;;;9.50;8.50;;;29.85;97088.91;;;;119148;1188;25543;-54
2022/08/21 00:13:28;;;;;;;;;8.67;7.67;;;29.84;97088.33;;;;119170;1187;26298;-54
2022/08/21 00:15:56;;;;;;;;;11.50;9.00;;;29.84;97091.72;;;;119150;1187;25660;-54
2022/08/21 00:18:24;;;;;;;;;11.67;9.00;;;29.82;97089.72;;;;119148;1188;25846;-54
2022/08/21 00:20:52;;;;;;;;;9.50;9.50;;;29.81;97081.80;;;;119140;1189;25440;-55
2022/08/21 00:23:20;;;;;;;;;9.50;9.50;;;29.82;97078.52;;;;119165;1188;24912;-56
2022/08/21 00:25:48;;;;;;;;;11.75;10.50;;;29.81;97075.76;;;;119145;1188;25566;-55
2022/08/21 00:28:16;;;;;;;;;13.50;9.25;;;29.80;97077.40;;;;119052;1188;25263;-54
2022/08/21 00:30:44;;;;;;;;;13.75;9.25;;;29.80;97079.88;;;;119160;1187;25221;-54
2022/08/21 00:33:12;;;;;;;;;8.25;8.25;;;29.80;97081.91;;;;119132;1187;25912;-55
2022/08/21 00:35:43;;;;;;;;;10.25;8.75;;;29.79;97083.77;;;;119145;1188;25677;-58
2022/08/21 00:38:11;;;;;;;;;10.25;9.50;;;29.78;97085.29;;;;119138;1188;25769;-58
2022/08/21 00:40:47;;;;;;;;;11.50;10.75;;;29.78;97090.25;;;;119121;1187;25408;-59
2022/08/21 00:43:19;;;;;;;;;11.25;9.00;;;29.77;97094.30;;;;119133;1188;26199;-59
2022/08/21 00:45:48;;;;;;;;;9.00;8.00;;;29.79;97092.65;;;;119155;1189;25322;-59
2022/08/21 00:48:16;;;;;;;;;10.25;8.25;;;29.77;97089.10;;;;119145;1187;25664;-58
2022/08/21 00:50:58;;;;;;;;;9.25;9.25;;;29.76;97085.76;;;;119150;1186;25571;-58
2022/08/21 00:53:27;;;;;;;;;8.25;5.75;;;29.77;97084.21;;;;119037;1188;25469;-58
2022/08/21 00:55:55;;;;;;;;;10.33;8.67;;;29.76;97080.67;;;;119054;1188;26338;-58
2022/08/21 00:58:24;;;;;;;;;5.75;5.75;;;29.74;97076.15;;;;119122;1188;25334;-58
2022/08/21 01:00:52;;;;;;;;;11.67;7.67;;;29.72;97073.85;;;;119024;1189;25042;-57
2022/08/21 01:03:22;;;;;;;;;13.25;8.50;;;29.72;97071.34;;;;119057;1189;25231;-57
2022/08/21 01:05:51;;;;;;;;;10.75;8.25;;;29.73;97070.14;;;;119056;1189;25236;-57
2022/08/21 01:08:21;;;;;;;;;10.75;9.25;;;29.72;97064.42;;;;119133;1189;25093;-57
2022/08/21 01:10:50;;;;;;;;;10.00;9.50;;;29.71;97057.03;;;;119150;1187;25108;-57
2022/08/21 01:13:23;;;;;;;;;11.00;7.75;;;29.71;97052.15;;;;119157;1187;25483;-58
2022/08/21 01:15:53;;;;;;;;;9.75;9.00;;;29.71;97051.89;;;;119130;1189;25039;-58
2022/08/21 01:18:21;;;;;;;;;9.25;9.25;;;29.70;97049.31;;;;119029;1190;26244;-58
2022/08/21 01:21:00;;;;;;;;;10.00;9.75;;;29.69;97050.67;;;;119160;1188;25076;-58
2022/08/21 01:23:28;;;;;;;;;12.75;10.50;;;29.70;97056.10;;;;119154;1189;25273;-58
2022/08/21 01:25:56;;;;;;;;;10.25;8.25;;;29.67;97063.20;;;;119049;1190;25557;-58
2022/08/21 01:28:25;;;;;;;;;10.50;9.50;;;29.68;97067.45;;;;119136;1188;25374;-58
2022/08/21 01:30:53;;;;;;;;;9.75;9.00;;;29.67;97067.91;;;;119061;1189;25511;-58
2022/08/21 01:33:24;;;;;;;;;9.25;8.00;;;29.65;97065.34;;;;119062;1187;25524;-58
2022/08/21 01:35:52;;;;;;;;;9.25;9.25;;;29.65;97063.67;;;;119150;1187;25088;-58
2022/08/21 01:38:20;;;;;;;;;12.50;8.00;;;29.66;97068.58;;;;119120;1188;25429;-56
2022/08/21 01:40:48;;;;;;;;;10.25;9.00;;;29.65;97076.21;;;;119151;1188;24914;-61
2022/08/21 01:43:16;;;;;;;;;12.75;9.00;;;29.64;97081.09;;;;119041;1190;26373;-60
2022/08/21 01:45:50;;;;;;;;;9.50;9.00;;;29.64;97075.23;;;;119132;1188;24846;-62
2022/08/21 01:48:18;;;;;;;;;10.33;7.33;;;29.65;97071.41;;;;119035;1189;25549;-59
2022/08/21 01:50:46;;;;;;;;;8.50;8.50;;;29.65;97070.61;;;;119112;1188;25378;-59
2022/08/21 01:53:19;;;;;;;;;6.00;6.00;;;29.66;97077.52;;;;119039;1190;24838;-57
2022/08/21 01:55:56;;;;;;;;;6.25;5.50;;;29.71;97081.17;;;;119156;1187;25208;-57
2022/08/21 01:58:24;;;;;;;;;10.25;8.75;;;29.70;97078.89;;;;119198;1188;26012;-57
2022/08/21 02:00:51;;;;;;;;;11.75;7.75;;;29.66;97071.20;;;;119189;1188;25339;-57
2022/08/21 02:03:20;;;;;;;;;11.50;8.25;;;29.66;97069.59;;;;119192;1186;26113;-57
2022/08/21 02:06:06;;;;;;;;;13.50;10.25;;;29.69;97071.67;;;;119205;1188;25539;-57
2022/08/21 02:08:34;;;;;;;;;8.50;8.50;;;29.72;97075.23;;;;119026;1188;25698;-57
2022/08/21 02:11:02;;;;;;;;;8.25;8.25;;;29.69;97071.59;;;;119208;1188;25450;-57
2022/08/21 02:13:30;;;;;;;;;8.50;8.50;;;29.65;97069.77;;;;119174;1188;25387;-57
2022/08/21 02:15:57;;;;;;;;;12.00;9.00;;;29.62;97072.59;;;;119199;1187;26173;-58
2022/08/21 02:18:25;;;;;;;;;10.00;8.00;;;29.60;97065.82;;;;119180;1188;25819;-60
2022/08/21 02:20:53;;;;;;;;;13.75;8.75;;;29.58;97065.45;;;;119155;1187;25670;-59
2022/08/21 02:23:24;;;;;;;;;15.25;9.50;;;29.57;97068.20;;;;119200;1187;25099;-61
2022/08/21 02:26:02;;;;;;;;;10.25;8.50;;;29.59;97072.89;;;;119049;1190;26318;-55
2022/08/21 02:28:31;;;;;;;;;10.50;9.00;;;29.60;97074.38;;;;119238;1188;26404;-55
2022/08/21 02:30:59;;;;;;;;;5.75;5.00;;;29.61;97074.13;;;;119244;1187;25033;-54
2022/08/21 02:33:28;;;;;;;;;10.00;7.25;;;29.60;97072.09;;;;119045;1189;25126;-54
2022/08/21 02:35:57;;;;;;;;;8.75;8.75;;;29.60;97071.73;;;;119251;1186;25652;-55
2022/08/21 02:38:27;;;;;;;;;9.50;7.75;;;29.60;97081.64;;;;119052;1188;26420;-54
2022/08/21 02:40:56;;;;;;;;;7.33;5.67;;;29.61;97089.77;;;;119220;1188;26162;-54
2022/08/21 02:43:26;;;;;;;;;9.00;7.00;;;29.64;97097.26;;;;119227;1186;25937;-55
2022/08/21 02:45:56;;;;;;;;;9.75;9.00;;;29.64;97098.18;;;;119025;1189;24814;-55
2022/08/21 02:48:27;;;;;;;;;12.00;9.00;;;29.64;97097.77;;;;119249;1188;25384;-55
2022/08/21 02:51:07;;;;;;;;;10.25;7.25;;;29.64;97095.05;;;;119202;1187;25289;-54
2022/08/21 02:53:35;;;;;;;;;7.67;7.67;;;29.67;97095.18;;;;119162;1187;24855;-56
2022/08/21 02:56:07;;;;;;;;;6.50;5.50;;;29.68;97099.77;;;;119166;1187;25770;-54
2022/08/21 02:58:42;;;;;;;;;8.75;8.50;;;29.68;97104.87;;;;119159;1187;25157;-54
2022/08/21 03:01:10;;;;;;;;;12.00;11.50;;;29.67;97104.61;;;;119188;1188;25070;-53
2022/08/21 03:03:42;;;;;;;;;8.75;7.25;;;29.67;97098.42;;;;119206;1188;25759;-55
2022/08/21 03:06:13;;;;;;;;;7.50;7.25;;;29.67;97095.84;;;;119179;1187;25200;-56
2022/08/21 03:08:41;;;;;;;;;9.50;7.50;;;29.66;97095.82;;;;119051;1189;26371;-54
2022/08/21 03:11:09;;;;;;;;;9.00;9.00;;;29.66;97102.66;;;;119206;1187;25774;-54
2022/08/21 03:13:38;;;;;;;;;9.00;8.33;;;29.65;97110.79;;;;119185;1189;25346;-54
2022/08/21 03:16:08;;;;;;;;;11.25;7.75;;;29.66;97112.90;;;;119168;1187;25109;-55
2022/08/21 03:18:37;;;;;;;;;10.00;10.00;;;29.66;97105.13;;;;119153;1188;25424;-55
2022/08/21 03:21:07;;;;;;;;;6.67;6.33;;;29.67;97093.88;;;;119156;1188;25605;-52
2022/08/21 03:23:35;;;;;;;;;8.75;8.75;;;29.67;97085.29;;;;119176;1189;25526;-54
2022/08/21 03:26:03;;;;;;;;;6.75;6.25;;;29.67;97079.79;;;;119140;1188;25788;-55
2022/08/21 03:28:32;;;;;;;;;9.00;7.67;;;29.66;97073.53;;;;119152;1188;25954;-54
2022/08/21 03:31:00;;;;;;;;;8.00;7.25;;;29.66;97074.09;;;;119163;1188;24729;-54
2022/08/21 03:33:28;;;;;;;;;10.00;7.25;;;29.68;97077.27;;;;119158;1189;25873;-57
2022/08/21 03:36:04;;;;;;;;;8.75;7.75;;;29.68;97080.85;;;;119030;1190;26719;-55
2022/08/21 03:38:34;;;;;;;;;12.25;9.25;;;29.68;97079.25;;;;119173;1188;25313;-54
2022/08/21 03:41:04;;;;;;;;;9.00;6.50;;;29.70;97076.27;;;;119157;1188;26240;-58
2022/08/21 03:43:32;;;;;;;;;11.25;9.00;;;29.72;97074.02;;;;119025;1190;26722;-56
2022/08/21 03:46:03;;;;;;;;;8.50;8.25;;;29.72;97070.98;;;;119189;1188;25301;-55
2022/08/21 03:48:32;;;;;;;;;8.75;8.00;;;29.73;97068.88;;;;119167;1188;24972;-53
2022/08/21 03:51:00;;;;;;;;;10.75;9.00;;;29.72;97063.89;;;;119144;1188;26080;-53
2022/08/21 03:53:28;;;;;;;;;8.25;6.25;;;29.70;97065.31;;;;119151;1187;25897;-54
2022/08/21 03:55:56;;;;;;;;;7.67;7.67;;;29.69;97066.20;;;;119097;1187;25241;-53
2022/08/21 03:58:26;;;;;;;;;7.75;6.75;;;29.68;97065.05;;;;119109;1188;25256;-54
2022/08/21 04:00:57;;;;;;;;;9.00;7.50;;;29.71;97065.79;;;;119140;1188;25705;-54
2022/08/21 04:03:26;;;;;;;;;7.25;7.25;;;29.71;97063.27;;;;119128;1188;25031;-54
2022/08/21 04:05:54;;;;;;;;;7.75;5.50;;;29.71;97065.45;;;;119137;1187;25495;-54
2022/08/21 04:08:22;;;;;;;;;8.00;7.25;;;29.70;97068.46;;;;119133;1188;25222;-56
2022/08/21 04:10:52;;;;;;;;;6.75;6.75;;;29.67;97065.41;;;;119145;1187;25452;-56
2022/08/21 04:13:21;;;;;;;;;8.50;7.75;;;29.69;97063.05;;;;119155;1187;24771;-56
2022/08/21 04:15:49;;;;;;;;;9.00;8.75;;;29.70;97063.61;;;;119106;1186;25390;-55
2022/08/21 04:18:16;;;;;;;;;9.75;9.25;;;29.69;97061.20;;;;119149;1187;25663;-57
2022/08/21 04:20:47;;;;;;;;;6.75;6.75;;;29.71;97061.52;;;;119152;1187;25070;-57
2022/08/21 04:23:19;;;;;;;;;8.75;7.25;;;29.72;97063.16;;;;119008;1189;25174;-55
2022/08/21 04:25:55;;;;;;;;;10.75;8.00;;;29.79;97062.02;;;;118921;1190;25794;-56
2022/08/21 04:28:25;;;;;;;;;7.75;7.50;;;29.80;97060.70;;;;119031;1189;25323;-64
2022/08/21 04:30:57;;;;;;;;;8.00;7.75;;;29.81;97057.02;;;;119115;1187;25082;-59
2022/08/21 04:33:25;;;;;;;;;6.25;6.25;;;29.80;97055.64;;;;119119;1189;25685;-64
2022/08/21 04:35:53;;;;;;;;;7.50;7.50;;;29.79;97051.23;;;;118996;1190;24866;-63
2022/08/21 04:38:21;;;;;;;;;8.00;7.33;;;29.78;97051.14;;;;119138;1188;25871;-61
2022/08/21 04:40:50;;;;;;;;;7.00;6.25;;;29.78;97058.02;;;;118985;1189;25745;-62
2022/08/21 04:43:19;;;;;;;;;8.00;6.33;;;29.81;97062.73;;;;119129;1188;25249;-61
2022/08/21 04:45:48;;;;;;;;;9.25;7.75;;;29.81;97064.62;;;;119152;1187;24962;-61
2022/08/21 04:48:19;;;;;;;;;6.75;5.00;;;29.81;97061.73;;;;119042;1187;26414;-62
2022/08/21 04:51:06;;;;;;;;;7.25;6.50;;;29.82;97064.74;;;;119046;1189;25062;-62
2022/08/21 04:53:43;;;;;;;;;9.75;7.50;;;29.82;97060.63;;;;119148;1188;25935;-62
2022/08/21 04:56:15;;;;;;;;;6.25;5.75;;;29.82;97061.56;;;;119156;1187;25459;-61
2022/08/21 04:58:43;;;;;;;;;10.75;8.25;;;29.82;97066.38;;;;119151;1187;25713;-62
2022/08/21 05:01:17;;;;;;;;;8.75;6.25;;;29.81;97071.15;;;;119155;1187;25048;-64
2022/08/21 05:03:48;;;;;;;;;4.00;4.00;;;29.82;97075.30;;;;119049;1188;25345;-60
2022/08/21 05:06:16;;;;;;;;;6.00;6.00;;;29.83;97076.09;;;;119120;1188;24926;-62
2022/08/21 05:08:45;;;;;;;;;6.25;6.25;;;29.80;97074.54;;;;119050;1189;24961;-62
2022/08/21 05:11:13;;;;;;;;;10.00;5.00;;;29.78;97073.52;;;;119022;1188;25665;-59
2022/08/21 05:13:41;;;;;;;;;5.50;5.25;;;29.76;97073.05;;;;119129;1189;25677;-59
2022/08/21 05:16:09;;;;;;;;;8.50;5.75;;;29.75;97081.91;;;;119098;1188;25143;-59
2022/08/21 05:18:37;;;;;;;;;5.00;5.00;;;29.73;97086.73;;;;119092;1188;25224;-59
2022/08/21 05:21:05;;;;;;;;;5.67;5.00;;;29.75;97091.16;;;;119101;1188;25410;-59
2022/08/21 05:23:33;;;;;;;;;5.50;4.50;;;29.76;97093.48;;;;119052;1188;25621;-60
2022/08/21 05:26:02;;;;;;;;;5.25;4.50;;;29.76;97092.52;;;;119066;1188;25180;-59
2022/08/21 05:28:31;;;;;;;;;9.00;6.50;;;29.76;97099.39;;;;119118;1189;25769;-59
2022/08/21 05:30:59;;;;;;;;;8.75;5.00;;;29.75;97107.61;;;;119174;1188;25606;-60
2022/08/21 05:33:27;;;;;;;;;6.00;4.75;;;29.76;97112.91;;;;119168;1188;26133;-61
2022/08/21 05:35:55;;;;;;;;;6.50;5.25;;;29.75;97112.75;;;;119184;1187;25031;-60
2022/08/21 05:38:28;;;;;;;;;3.00;2.25;;;29.77;97109.16;;;;119195;1188;26152;-61
2022/08/21 05:40:56;;;;;;;;;5.75;4.25;;;29.77;97115.06;;;;119166;1188;25204;-60
2022/08/21 05:43:24;;;;;;;;;5.50;4.00;;;29.76;97120.92;;;;119034;1189;25903;-59
2022/08/21 05:45:52;;;;;;;;;7.33;4.67;;;29.77;97130.33;;;;119157;1188;25344;-60
2022/08/21 05:48:22;;;;;;;;;4.67;4.00;;;29.75;97134.66;;;;119209;1188;25888;-59
2022/08/21 05:50:51;;;;;;;;;5.00;4.50;;;29.74;97138.70;;;;119019;1189;25576;-60
2022/08/21 05:53:21;;;;;;;;;8.25;6.50;;;29.73;97141.46;;;;119125;1187;24772;-58
2022/08/21 05:55:50;;;;;;;;;6.25;4.00;;;29.71;97140.67;;;;119150;1187;25337;-58
2022/08/21 05:58:20;;;;;;;;;6.00;3.75;;;29.66;97141.13;;;;119141;1188;25444;-59
2022/08/21 06:00:50;;;;;;;;;7.50;4.50;;;29.71;97142.50;;;;119149;1188;26018;-56
2022/08/21 06:03:21;;;;;;;;;6.50;4.00;;;29.71;97144.24;;;;119203;1187;25210;-58
2022/08/21 06:05:48;;;;;;;;;6.75;5.00;;;29.65;97145.34;;;;119195;1187;25388;-60
2022/08/21 06:08:17;;;;;;;;;6.75;4.00;;;29.61;97146.86;;;;119042;1189;25044;-61
2022/08/21 06:10:46;;;;;;;;;6.33;5.00;;;29.62;97143.09;;;;119033;1188;25611;-60
2022/08/21 06:13:16;;;;;;;;;5.00;4.00;;;29.61;97143.55;;;;119175;1187;26211;-60
2022/08/21 06:15:44;;;;;;;;;7.25;4.00;;;29.60;97142.38;;;;119011;1189;25604;-60
2022/08/21 06:18:12;;;;;;;;;5.00;4.00;;;29.58;97136.02;;;;119169;1188;25680;-60
2022/08/21 06:20:41;;;;;;;;;10.50;5.50;;;29.57;97130.26;;;;119050;1188;25014;-59
2022/08/21 06:23:09;;;;;;;;;6.75;4.00;;;29.57;97128.20;;;;119006;1189;25409;-59
2022/08/21 06:25:37;;;;;;;;;5.00;5.00;;;29.56;97127.74;;;;119037;1188;24912;-58
2022/08/21 06:28:07;;;;;;;;;5.00;5.00;;;29.50;97130.30;;;;119001;1189;25713;-58
2022/08/21 06:30:36;;;;;;;;;8.50;5.75;;;29.45;97133.91;;;;119014;1189;24749;-58
2022/08/21 06:33:04;;;;;;;;;9.25;5.75;;;29.46;97142.36;;;;118987;1189;25512;-60
2022/08/21 06:35:33;;;;;;;;;8.33;4.67;;;29.42;97145.19;;;;119003;1188;24958;-59
2022/08/21 06:38:01;;;;;;;;;7.75;5.00;;;29.43;97146.55;;;;119046;1190;25171;-60
2022/08/21 06:40:30;;;;;;;;;6.25;5.50;;;29.45;97141.92;;;;119007;1189;25321;-59
2022/08/21 06:43:14;;;;;;;;;8.75;6.25;;;29.53;97140.16;;;;119033;1190;25862;-59
2022/08/21 06:45:42;;;;;;;;;5.75;4.75;;;29.42;97134.68;;;;119135;1188;25549;-61
2022/08/21 06:48:10;;;;;;;;;8.00;4.50;;;29.48;97127.02;;;;119030;1189;24843;-57
2022/08/21 06:50:46;;;;;;;;;6.25;4.50;;;29.46;97116.31;;;;119166;1188;24948;-56
2022/08/21 06:53:17;;;;;;;;;4.50;4.00;;;29.48;97110.94;;;;119023;1189;25698;-61
2022/08/21 06:55:46;;;;;;;;;6.00;4.25;;;29.51;97109.20;;;;119039;1189;25062;-56
2022/08/21 06:58:14;;;;;;;;;7.25;5.00;;;29.53;97111.45;;;;119159;1188;25293;-56
2022/08/21 07:00:45;;;;;;;;;3.00;3.00;;;29.54;97115.35;;;;119186;1188;25404;-59
2022/08/21 07:03:34;;;;;;;;;10.25;8.00;;;29.56;97120.90;;;;119007;1189;25233;-58
2022/08/21 07:06:06;;;;;;;;;18.50;11.25;;;29.66;97123.02;;;;119163;1187;25711;-58
2022/08/21 07:08:35;;;;;;;;;10.50;7.50;;;29.71;97121.07;;;;119163;1187;25131;-60
2022/08/21 07:11:22;;;;;;;;;12.00;9.00;;;29.66;97114.70;;;;119171;1188;25375;-59
2022/08/21 07:13:52;;;;;;;;;5.50;5.50;;;29.71;97115.03;;;;119162;1187;25293;-60
2022/08/21 07:16:21;;;;;;;;;13.50;8.25;;;29.67;97114.27;;;;119160;1189;26263;-62
2022/08/21 07:18:49;;;;;;;;;12.00;8.25;;;29.58;97114.67;;;;119153;1188;26120;-62
2022/08/21 07:21:16;;;;;;;;;11.00;8.50;;;29.55;97112.75;;;;119128;1188;25709;-63
2022/08/21 07:23:50;;;;;;;;;9.75;6.50;;;29.51;97105.61;;;;119143;1187;25915;-61
2022/08/21 07:26:21;;;;;;;;;8.50;8.50;;;29.52;97104.35;;;;119163;1188;25157;-66
2022/08/21 07:28:49;;;;;;;;;6.50;5.75;;;29.51;97106.11;;;;119172;1187;26547;-64
2022/08/21 07:31:19;;;;;;;;;16.50;8.75;;;29.49;97104.97;;;;119144;1187;24875;-62
2022/08/21 07:33:47;;;;;;;;;17.50;13.25;;;29.53;97103.59;;;;119135;1188;26181;-61
2022/08/21 07:36:15;;;;;;;;;30.25;20.50;;;29.52;97102.89;;;;119145;1189;25637;-66
2022/08/21 07:38:43;;;;;;;;;40.25;18.00;;;29.54;97098.96;;;;119155;1188;25388;-60
2022/08/21 07:41:23;;;;;;;;;29.50;23.00;;;29.59;97095.89;;;;119259;1188;24962;-57
2022/08/21 07:43:52;;;;;;;;;30.00;18.25;;;29.74;97090.73;;;;119341;1189;25700;-58
2022/08/21 07:46:19;;;;;;;;;23.25;16.25;;;29.91;97090.93;;;;119239;1187;24842;-57
2022/08/21 07:48:47;;;;;;;;;22.00;15.00;;;29.96;97089.08;;;;119009;1190;24743;-56
2022/08/21 07:51:24;;;;;;;;;27.00;19.75;;;29.81;97091.41;;;;119112;1188;26101;-57
2022/08/21 07:53:55;;;;;;;;;26.00;19.75;;;29.71;97094.52;;;;119100;1188;25778;-58
2022/08/21 07:56:22;;;;;;;;;20.67;16.33;;;29.72;97096.86;;;;119105;1188;25594;-57
2022/08/21 07:58:50;;;;;;;;;28.67;17.67;;;29.66;97095.06;;;;119318;1189;25760;-58
2022/08/21 08:01:19;;;;;;;;;25.75;16.25;;;29.93;97094.30;;;;119533;1188;25365;-58
2022/08/21 08:03:47;;;;;;;;;22.75;15.75;;;30.43;97091.08;;;;119496;1188;25682;-58
2022/08/21 08:06:18;;;;;;;;;23.25;15.25;;;30.78;97091.89;;;;119561;1187;26036;-58
2022/08/21 08:08:47;;;;;;;;;13.25;6.75;;;31.03;97098.45;;;;119530;1189;26312;-58
2022/08/21 08:11:15;;;;;;;;;20.50;13.00;;;31.18;97096.63;;;;119498;1186;25457;-58
2022/08/21 08:13:45;;;;;;;;;16.75;14.50;;;31.23;97098.11;;;;119178;1188;25123;-57
2022/08/21 08:16:14;;;;;;;;;16.00;11.75;;;30.93;97098.85;;;;119138;1187;25190;-57
2022/08/21 08:18:42;;;;;;;;;15.25;12.50;;;30.56;97092.30;;;;119110;1189;25725;-57
2022/08/21 08:21:11;;;;;;;;;13.75;10.50;;;30.29;97085.55;;;;119127;1188;26598;-58
2022/08/21 08:23:39;;;;;;;;;13.50;11.25;;;30.13;97088.06;;;;119126;1188;24943;-58
2022/08/21 08:26:07;;;;;;;;;18.50;12.75;;;30.00;97088.16;;;;119134;1187;25388;-57
2022/08/21 08:28:35;;;;;;;;;24.00;17.00;;;29.91;97085.66;;;;119123;1188;25632;-63
2022/08/21 08:31:03;;;;;;;;;17.25;9.50;;;29.84;97086.58;;;;119117;1188;25133;-65
2022/08/21 08:33:31;;;;;;;;;13.00;10.50;;;29.79;97085.21;;;;119137;1188;26197;-63
2022/08/21 08:36:00;;;;;;;;;16.50;10.75;;;29.76;97085.15;;;;119147;1188;25728;-59
2022/08/21 08:38:34;;;;;;;;;11.75;10.00;;;29.74;97087.09;;;;119162;1188;24829;-60
2022/08/21 08:41:12;;;;;;;;;11.50;10.25;;;29.73;97084.15;;;;119169;1187;25175;-58
2022/08/21 08:43:45;;;;;;;;;14.25;11.00;;;29.72;97087.67;;;;119173;1187;24869;-58
2022/08/21 08:46:15;;;;;;;;;11.25;9.50;;;29.72;97087.61;;;;119134;1188;25386;-57
2022/08/21 08:48:53;;;;;;;;;17.50;10.00;;;29.72;97088.86;;;;119145;1188;25229;-57
2022/08/21 08:51:26;;;;;;;;;15.33;9.67;;;29.73;97088.98;;;;119136;1188;24923;-57
2022/08/21 08:54:03;;;;;;;;;9.00;8.75;;;29.72;97085.92;;;;119167;1188;25259;-57
2022/08/21 08:56:33;;;;;;;;;12.50;8.00;;;29.71;97084.96;;;;119153;1188;26083;-57
2022/08/21 08:59:09;;;;;;;;;11.25;9.75;;;29.71;97084.09;;;;119152;1187;26254;-57
2022/08/21 09:01:37;;;;;;;;;12.25;8.50;;;29.71;97082.02;;;;119152;1188;25455;-57
2022/08/21 09:04:06;;;;;;;;;10.00;8.50;;;29.71;97078.27;;;;119029;1189;26171;-57
2022/08/21 09:06:53;;;;;;;;;12.00;10.25;;;29.68;97077.00;;;;119131;1187;25252;-57
2022/08/21 09:09:37;;;;;;;;;14.00;8.25;;;29.74;97082.88;;;;119172;1187;24981;-57
2022/08/21 09:12:29;;;;;;;;;7.33;7.33;;;29.76;97087.13;;;;119139;1188;25541;-57
2022/08/21 09:15:17;;;;;;;;;9.00;6.75;;;29.75;97082.25;;;;119172;1188;25936;-57
2022/08/21 09:18:20;;;;;;;;;12.25;6.25;;;29.74;97073.82;;;;119146;1188;25345;-57
2022/08/21 09:21:11;;;;;;;;;13.25;7.00;;;29.76;97069.55;;;;119164;1187;25117;-57
2022/08/21 09:23:54;;;;;;;;;7.75;7.75;;;29.75;97061.05;;;;119136;1188;25379;-57
2022/08/21 09:26:29;;;;;;;;;12.00;10.25;;;29.74;97053.60;;;;119151;1186;25712;-57
2022/08/21 09:29:00;;;;;;;;;9.00;8.00;;;29.73;97045.33;;;;119117;1187;26499;-58
2022/08/21 09:31:34;;;;;;;;;10.50;9.50;;;29.73;97042.73;;;;119117;1187;25552;-61
2022/08/21 09:34:11;;;;;;;;;12.50;8.75;;;29.75;97036.53;;;;119137;1188;25662;-60
2022/08/21 09:36:42;;;;;;;;;12.00;9.00;;;29.76;97037.14;;;;119139;1188;24903;-57
2022/08/21 09:39:13;;;;;;;;;10.33;7.33;;;29.76;97033.42;;;;119138;1188;26220;-57
2022/08/21 09:41:40;;;;;;;;;13.00;7.25;;;29.74;97030.00;;;;119123;1187;25109;-59
2022/08/21 09:44:08;;;;;;;;;9.00;6.50;;;29.74;97026.02;;;;119128;1188;26339;-61
2022/08/21 09:46:36;;;;;;;;;10.50;9.00;;;29.73;97026.08;;;;119111;1188;26468;-61
2022/08/21 09:49:04;;;;;;;;;10.25;8.50;;;29.74;97029.52;;;;119107;1188;24849;-61
2022/08/21 09:51:51;;;;;;;;;11.00;7.50;;;29.76;97031.70;;;;119114;1188;25678;-57
2022/08/21 09:54:22;;;;;;;;;11.25;7.75;;;29.81;97033.92;;;;119077;1189;25732;-58
2022/08/21 09:59:46;;;;;;;;;6.25;5.50;;;29.88;97022.98;;;;119094;1189;25036;-57
2022/08/21 10:02:34;;;;;;;;;9.75;7.75;;;29.87;97017.52;;;;119112;1187;25771;-57
2022/08/21 10:05:15;;;;;;;;;10.00;8.00;;;29.89;97009.31;;;;119130;1189;26257;-58
2022/08/21 10:07:43;;;;;;;;;9.25;5.50;;;29.93;97007.86;;;;119136;1188;25254;-57
2022/08/21 10:10:25;;;;;;;;;12.00;7.00;;;29.93;97006.00;;;;119129;1188;24979;-57
2022/08/21 10:13:07;;;;;;;;;9.00;8.50;;;29.95;97003.96;;;;119102;1189;25506;-57
2022/08/21 10:15:35;;;;;;;;;8.25;6.00;;;29.96;97005.98;;;;119095;1187;25894;-59
2022/08/21 10:18:16;;;;;;;;;8.00;6.67;;;29.93;97002.99;;;;119144;1188;26057;-60
2022/08/21 10:20:50;;;;;;;;;8.25;8.00;;;29.98;97002.27;;;;119154;1187;26382;-58
2022/08/21 10:23:27;;;;;;;;;10.25;9.00;;;30.00;96997.77;;;;119142;1187;25461;-58
2022/08/21 10:26:30;;;;;;;;;12.00;8.50;;;30.01;96998.44;;;;119155;1188;25415;-58
2022/08/21 10:29:24;;;;;;;;;12.00;8.25;;;30.02;96996.23;;;;119051;1187;25904;-57
2022/08/21 10:32:20;;;;;;;;;8.00;8.00;;;30.00;96995.97;;;;119134;1188;26359;-58
2022/08/21 10:34:59;;;;;;;;;9.50;8.75;;;30.00;96996.34;;;;119156;1188;25932;-56
2022/08/21 10:37:38;;;;;;;;;7.75;7.25;;;29.98;96998.25;;;;119156;1189;25004;-58
2022/08/21 10:40:25;;;;;;;;;9.00;8.50;;;29.98;96992.69;;;;119139;1188;25703;-57
2022/08/21 10:43:23;;;;;;;;;6.75;6.75;;;30.00;96987.61;;;;119179;1187;26551;-56
2022/08/21 10:46:07;;;;;;;;;8.00;8.00;;;30.02;96991.27;;;;119146;1188;25337;-56
2022/08/21 10:48:47;;;;;;;;;10.00;8.50;;;30.02;96990.67;;;;119158;1188;25137;-57
2022/08/21 10:51:17;;;;;;;;;8.50;7.75;;;30.04;96989.66;;;;119152;1187;25636;-57
2022/08/21 10:54:43;;;;;;;;;8.25;5.00;;;30.05;96986.09;;;;119186;1188;26128;-57
2022/08/21 10:57:54;;;;;;;;;9.50;8.00;;;30.17;96980.06;;;;119105;1187;25514;-57
2022/08/21 11:00:28;;;;;;;;;12.75;10.25;;;30.21;96977.56;;;;119173;1187;25403;-57
2022/08/21 11:03:11;;;;;;;;;10.75;8.00;;;30.15;96973.48;;;;119042;1189;24964;-57
2022/08/21 11:05:41;;;;;;;;;6.25;6.25;;;30.17;96976.35;;;;119044;1188;25503;-57
2022/08/21 11:08:22;;;;;;;;;9.33;8.67;;;30.15;96977.50;;;;119176;1188;25166;-57
2022/08/21 11:11:08;;;;;;;;;9.00;7.25;;;30.15;96974.15;;;;119169;1187;25134;-57
2022/08/21 11:13:40;;;;;;;;;9.50;7.75;;;30.19;96975.55;;;;119180;1188;25283;-58
2022/08/21 11:16:26;;;;;;;;;5.33;5.00;;;30.17;96973.52;;;;119180;1188;24908;-56
2022/08/21 11:19:15;;;;;;;;;7.00;4.00;;;30.17;96970.98;;;;119175;1187;25852;-57
2022/08/21 11:21:46;;;;;;;;;15.33;5.00;;;30.17;96972.45;;;;119171;1187;24741;-57
2022/08/21 11:24:31;;;;;;;;;8.25;5.50;;;30.15;96969.39;;;;119150;1187;25530;-57
2022/08/21 11:27:16;;;;;;;;;5.25;4.50;;;30.17;96968.67;;;;119141;1189;25798;-57
2022/08/21 11:29:49;;;;;;;;;8.67;7.00;;;30.22;96962.23;;;;119142;1188;25219;-57
2022/08/21 11:32:25;;;;;;;;;9.00;7.00;;;30.24;96961.19;;;;119153;1188;25408;-57
2022/08/21 11:35:05;;;;;;;;;8.00;8.00;;;30.23;96964.98;;;;119163;1188;25502;-60
2022/08/21 11:38:11;;;;;;;;;4.50;4.50;;;30.21;96960.70;;;;119134;1188;25569;-59
2022/08/21 11:40:39;;;;;;;;;8.50;8.00;;;30.23;96956.55;;;;119140;1187;26423;-64
2022/08/21 11:43:12;;;;;;;;;8.00;7.25;;;30.20;96952.35;;;;119146;1188;25241;-59
2022/08/21 11:46:12;;;;;;;;;8.67;7.00;;;30.23;96950.83;;;;119117;1187;25665;-57
2022/08/21 11:49:00;;;;;;;;;5.00;5.00;;;30.33;96950.73;;;;118900;1188;26284;-60
2022/08/21 11:51:36;;;;;;;;;9.00;7.50;;;30.37;96954.79;;;;119072;1189;25689;-57
2022/08/21 11:54:37;;;;;;;;;8.50;7.00;;;30.38;96946.94;;;;119132;1189;25176;-57
2022/08/21 11:57:25;;;;;;;;;8.50;6.50;;;30.45;96943.80;;;;119127;1189;26360;-57
2022/08/21 12:00:04;;;;;;;;;7.75;6.25;;;30.47;96944.66;;;;119127;1188;26399;-57
2022/08/21 12:02:38;;;;;;;;;10.00;6.50;;;30.47;96943.05;;;;119133;1188;25771;-57
2022/08/21 12:05:21;;;;;;;;;7.50;7.50;;;30.45;96945.55;;;;119146;1189;25639;-58
2022/08/21 12:08:05;;;;;;;;;7.75;7.25;;;30.46;96944.64;;;;119034;1189;24738;-57
2022/08/21 12:10:37;;;;;;;;;7.25;6.75;;;30.49;96943.67;;;;119155;1188;24902;-57
2022/08/21 12:13:26;;;;;;;;;9.75;8.25;;;30.49;96938.14;;;;119126;1188;25568;-60
2022/08/21 12:16:10;;;;;;;;;10.25;6.50;;;30.52;96929.78;;;;119138;1189;25311;-60
2022/08/21 12:18:39;;;;;;;;;7.50;5.75;;;30.49;96928.23;;;;119032;1188;26406;-60
2022/08/21 12:21:21;;;;;;;;;8.25;8.00;;;30.46;96923.36;;;;119155;1187;24677;-60
2022/08/21 12:24:00;;;;;;;;;11.75;7.25;;;30.46;96918.00;;;;119117;1188;25621;-58
2022/08/21 12:26:48;;;;;;;;;10.33;9.67;;;30.47;96916.52;;;;119126;1188;26513;-58
2022/08/21 12:29:26;;;;;;;;;8.00;7.25;;;30.55;96915.80;;;;119059;1188;25393;-56
2022/08/21 12:32:09;;;;;;;;;10.00;8.75;;;30.56;96913.44;;;;119004;1189;25316;-56
2022/08/21 12:34:45;;;;;;;;;7.50;7.50;;;30.53;96912.04;;;;119116;1188;25677;-56